sensor_id;sensor_type;location;lat;lon;timestamp;temperature;humidity
7512;DHT22;9999;48.780;9.146;2024-03-02T00:00:39;6.40;99.90
7512;DHT22;9999;48.780;9.146;2024-03-02T00:03:07;6.40;99.90
7512;DHT22;9999;48.780;9.146;2024-03-02T00:05:35;6.40;99.90
7512;DHT22;9999;48.780;9.146;2024-03-02T00:08:04;6.40;99.90
7512;DHT22;9999;48.780;9.146;2024-03-02T00:10:37;6.40;99.90
7512;DHT22;9999;48.780;9.146;2024-03-02T00:13:05;6.40;99.90
7512;DHT22;9999;48.780;9.146;2024-03-02T00:15:41;6.40;99.90
7512;DHT22;9999;48.780;9.146;2024-03-02T00:18:11;6.40;99.90
7512;DHT22;9999;48.780;9.146;2024-03-02T00:20:38;6.40;99.90
7512;DHT22;9999;48.780;9.146;2024-03-02T00:23:08;6.40;99.90
7512;DHT22;9999;48.780;9.146;2024-03-02T00:25:40;6.40;99.90
7512;DHT22;9999;48.780;9.146;2024-03-02T00:28:17;6.40;99.90
7512;DHT22;9999;48.780;9.146;2024-03-02T00:30:58;6.40;99.90
7512;DHT22;9999;48.780;9.146;2024-03-02T00:33:27;6.40;99.90
7512;DHT22;9999;48.780;9.146;2024-03-02T00:35:54;6.40;99.90
7512;DHT22;9999;48.780;9.146;2024-03-02T00:38:23;6.20;99.90
7512;DHT22;9999;48.780;9.146;2024-03-02T00:40:51;6.30;99.90
7512;DHT22;9999;48.780;9.146;2024-03-02T00:43:42;6.30;99.90
7512;DHT22;9999;48.780;9.146;2024-03-02T00:46:11;6.30;99.90
7512;DHT22;9999;48.780;9.146;2024-03-02T00:48:39;6.20;99.90
7512;DHT22;9999;48.780;9.146;2024-03-02T00:51:08;6.20;99.90
7512;DHT22;9999;48.780;9.146;2024-03-02T00:53:37;6.20;99.90
7512;DHT22;9999;48.780;9.146;2024-03-02T00:56:09;6.20;99.90
7512;DHT22;9999;48.780;9.146;2024-03-02T00:58:35;6.20;99.90
7512;DHT22;9999;48.780;9.146;2024-03-02T01:01:02;6.20;99.90
7512;DHT22;9999;48.780;9.146;2024-03-02T01:03:31;6.20;99.90
7512;DHT22;9999;48.780;9.146;2024-03-02T01:05:58;6.20;99.90
7512;DHT22;9999;48.780;9.146;2024-03-02T01:08:24;6.10;99.90
7512;DHT22;9999;48.780;9.146;2024-03-02T01:10:53;6.20;99.90
7512;DHT22;9999;48.780;9.146;2024-03-02T01:13:21;6.10;99.90
7512;DHT22;9999;48.780;9.146;2024-03-02T01:15:47;6.20;99.90
7512;DHT22;9999;48.780;9.146;2024-03-02T01:18:14;6.10;99.90
7512;DHT22;9999;48.780;9.146;2024-03-02T01:20:40;6.10;99.90
7512;DHT22;9999;48.780;9.146;2024-03-02T01:23:07;6.10;99.90
7512;DHT22;9999;48.780;9.146;2024-03-02T01:25:33;6.10;99.90
7512;DHT22;9999;48.780;9.146;2024-03-02T01:28:02;6.00;99.90
7512;DHT22;9999;48.780;9.146;2024-03-02T01:30:29;6.00;99.90
7512;DHT22;9999;48.780;9.146;2024-03-02T01:32:56;5.90;99.90
7512;DHT22;9999;48.780;9.146;2024-03-02T01:35:24;5.90;99.90
7512;DHT22;9999;48.780;9.146;2024-03-02T01:37:52;5.90;99.90
7512;DHT22;9999;48.780;9.146;2024-03-02T01:40:19;5.90;99.90
7512;DHT22;9999;48.780;9.146;2024-03-02T01:42:46;5.90;99.90
7512;DHT22;9999;48.780;9.146;2024-03-02T01:45:14;6.00;99.90
7512;DHT22;9999;48.780;9.146;2024-03-02T01:47:41;6.00;99.90
7512;DHT22;9999;48.780;9.146;2024-03-02T01:50:08;6.10;99.90
7512;DHT22;9999;48.780;9.146;2024-03-02T01:52:37;6.10;99.90
7512;DHT22;9999;48.780;9.146;2024-03-02T01:55:04;6.10;99.90
7512;DHT22;9999;48.780;9.146;2024-03-02T01:57:31;6.10;99.90
7512;DHT22;9999;48.780;9.146;2024-03-02T01:59:58;6.00;99.90
7512;DHT22;9999;48.780;9.146;2024-03-02T02:02:27;5.90;99.90
7512;DHT22;9999;48.780;9.146;2024-03-02T02:04:54;5.80;99.90
7512;DHT22;9999;48.780;9.146;2024-03-02T02:07:21;5.80;99.90
7512;DHT22;9999;48.780;9.146;2024-03-02T02:09:47;5.80;99.90
7512;DHT22;9999;48.780;9.146;2024-03-02T02:12:14;5.80;99.90
7512;DHT22;9999;48.780;9.146;2024-03-02T02:14:47;5.80;99.90
7512;DHT22;9999;48.780;9.146;2024-03-02T02:17:15;5.70;99.90
7512;DHT22;9999;48.780;9.146;2024-03-02T02:19:43;5.70;99.90
7512;DHT22;9999;48.780;9.146;2024-03-02T02:22:11;5.60;99.90
7512;DHT22;9999;48.780;9.146;2024-03-02T02:24:40;5.50;99.90
7512;DHT22;9999;48.780;9.146;2024-03-02T02:27:07;5.40;99.90
7512;DHT22;9999;48.780;9.146;2024-03-02T02:29:34;5.40;99.90
7512;DHT22;9999;48.780;9.146;2024-03-02T02:32:01;5.40;99.90
7512;DHT22;9999;48.780;9.146;2024-03-02T02:34:28;5.40;99.90
7512;DHT22;9999;48.780;9.146;2024-03-02T02:36:55;5.30;99.90
7512;DHT22;9999;48.780;9.146;2024-03-02T02:39:23;5.30;99.90
7512;DHT22;9999;48.780;9.146;2024-03-02T02:41:50;5.20;99.90
7512;DHT22;9999;48.780;9.146;2024-03-02T02:44:16;5.30;99.90
7512;DHT22;9999;48.780;9.146;2024-03-02T02:46:43;5.20;99.90
7512;DHT22;9999;48.780;9.146;2024-03-02T02:49:10;5.20;99.90
7512;DHT22;9999;48.780;9.146;2024-03-02T02:51:37;5.20;99.90
7512;DHT22;9999;48.780;9.146;2024-03-02T02:54:03;5.20;99.90
7512;DHT22;9999;48.780;9.146;2024-03-02T02:56:32;5.20;99.90
7512;DHT22;9999;48.780;9.146;2024-03-02T02:58:58;5.20;99.90
7512;DHT22;9999;48.780;9.146;2024-03-02T03:01:25;5.10;99.90
7512;DHT22;9999;48.780;9.146;2024-03-02T03:03:52;5.10;99.90
7512;DHT22;9999;48.780;9.146;2024-03-02T03:06:20;5.10;99.90
7512;DHT22;9999;48.780;9.146;2024-03-02T03:08:47;5.10;99.90
7512;DHT22;9999;48.780;9.146;2024-03-02T03:11:13;5.00;99.90
7512;DHT22;9999;48.780;9.146;2024-03-02T03:13:42;5.00;99.90
7512;DHT22;9999;48.780;9.146;2024-03-02T03:16:08;5.00;99.90
7512;DHT22;9999;48.780;9.146;2024-03-02T03:18:36;5.00;99.90
7512;DHT22;9999;48.780;9.146;2024-03-02T03:21:04;5.00;99.90
7512;DHT22;9999;48.780;9.146;2024-03-02T03:23:30;5.00;99.90
7512;DHT22;9999;48.780;9.146;2024-03-02T03:25:57;5.00;99.90
7512;DHT22;9999;48.780;9.146;2024-03-02T03:28:24;5.00;99.90
7512;DHT22;9999;48.780;9.146;2024-03-02T03:30:52;5.00;99.90
7512;DHT22;9999;48.780;9.146;2024-03-02T03:33:19;5.00;99.90
7512;DHT22;9999;48.780;9.146;2024-03-02T03:35:45;5.00;99.90
7512;DHT22;9999;48.780;9.146;2024-03-02T03:38:13;5.00;99.90
7512;DHT22;9999;48.780;9.146;2024-03-02T03:40:40;5.00;99.90
7512;DHT22;9999;48.780;9.146;2024-03-02T03:43:07;5.00;99.90
7512;DHT22;9999;48.780;9.146;2024-03-02T03:45:34;5.00;99.90
7512;DHT22;9999;48.780;9.146;2024-03-02T03:48:02;5.00;99.90
7512;DHT22;9999;48.780;9.146;2024-03-02T03:50:29;5.00;99.90
7512;DHT22;9999;48.780;9.146;2024-03-02T03:52:56;4.90;99.90
7512;DHT22;9999;48.780;9.146;2024-03-02T03:55:22;4.80;99.90
7512;DHT22;9999;48.780;9.146;2024-03-02T03:57:49;4.80;99.90
7512;DHT22;9999;48.780;9.146;2024-03-02T04:00:16;4.90;99.90
7512;DHT22;9999;48.780;9.146;2024-03-02T04:02:43;4.90;99.90
7512;DHT22;9999;48.780;9.146;2024-03-02T04:05:11;4.90;99.90
7512;DHT22;9999;48.780;9.146;2024-03-02T04:07:38;4.80;99.90
7512;DHT22;9999;48.780;9.146;2024-03-02T04:10:07;4.80;99.90
7512;DHT22;9999;48.780;9.146;2024-03-02T04:12:35;4.80;99.90
7512;DHT22;9999;48.780;9.146;2024-03-02T04:15:02;4.80;99.90
7512;DHT22;9999;48.780;9.146;2024-03-02T04:17:31;4.80;99.90
7512;DHT22;9999;48.780;9.146;2024-03-02T04:19:58;4.80;99.90
7512;DHT22;9999;48.780;9.146;2024-03-02T04:22:26;4.80;99.90
7512;DHT22;9999;48.780;9.146;2024-03-02T04:24:53;4.80;99.90
7512;DHT22;9999;48.780;9.146;2024-03-02T04:27:20;4.70;99.90
7512;DHT22;9999;48.780;9.146;2024-03-02T04:29:47;4.70;99.90
7512;DHT22;9999;48.780;9.146;2024-03-02T04:32:14;4.60;99.90
7512;DHT22;9999;48.780;9.146;2024-03-02T04:34:40;4.60;99.90
7512;DHT22;9999;48.780;9.146;2024-03-02T04:37:08;4.50;99.90
7512;DHT22;9999;48.780;9.146;2024-03-02T04:39:36;4.50;99.90
7512;DHT22;9999;48.780;9.146;2024-03-02T04:42:03;4.50;99.90
7512;DHT22;9999;48.780;9.146;2024-03-02T04:44:30;4.50;99.90
7512;DHT22;9999;48.780;9.146;2024-03-02T04:46:57;4.50;99.90
7512;DHT22;9999;48.780;9.146;2024-03-02T04:49:24;4.50;99.90
7512;DHT22;9999;48.780;9.146;2024-03-02T04:51:51;4.60;99.90
7512;DHT22;9999;48.780;9.146;2024-03-02T04:54:17;4.60;99.90
7512;DHT22;9999;48.780;9.146;2024-03-02T04:56:46;4.60;99.90
7512;DHT22;9999;48.780;9.146;2024-03-02T04:59:15;4.80;99.90
7512;DHT22;9999;48.780;9.146;2024-03-02T05:01:43;4.70;99.90
7512;DHT22;9999;48.780;9.146;2024-03-02T05:04:10;4.70;99.90
7512;DHT22;9999;48.780;9.146;2024-03-02T05:06:37;4.60;99.90
7512;DHT22;9999;48.780;9.146;2024-03-02T05:09:05;4.60;99.90
7512;DHT22;9999;48.780;9.146;2024-03-02T05:11:32;4.70;99.90
7512;DHT22;9999;48.780;9.146;2024-03-02T05:14:37;4.70;99.90
7512;DHT22;9999;48.780;9.146;2024-03-02T05:17:04;4.70;99.90
7512;DHT22;9999;48.780;9.146;2024-03-02T05:19:31;4.70;99.90
7512;DHT22;9999;48.780;9.146;2024-03-02T05:21:57;4.70;99.90
7512;DHT22;9999;48.780;9.146;2024-03-02T05:24:24;4.70;99.90
7512;DHT22;9999;48.780;9.146;2024-03-02T05:26:52;4.70;99.90
7512;DHT22;9999;48.780;9.146;2024-03-02T05:29:19;4.70;99.90
7512;DHT22;9999;48.780;9.146;2024-03-02T05:31:47;4.70;99.90
7512;DHT22;9999;48.780;9.146;2024-03-02T05:34:14;4.70;99.90
7512;DHT22;9999;48.780;9.146;2024-03-02T05:36:41;4.70;99.90
7512;DHT22;9999;48.780;9.146;2024-03-02T05:39:08;4.70;99.90
7512;DHT22;9999;48.780;9.146;2024-03-02T05:41:36;4.60;99.90
7512;DHT22;9999;48.780;9.146;2024-03-02T05:44:04;4.60;99.90
7512;DHT22;9999;48.780;9.146;2024-03-02T05:46:31;4.60;99.90
7512;DHT22;9999;48.780;9.146;2024-03-02T05:49:00;4.60;99.90
7512;DHT22;9999;48.780;9.146;2024-03-02T05:51:26;4.60;99.90
7512;DHT22;9999;48.780;9.146;2024-03-02T05:53:53;4.60;99.90
7512;DHT22;9999;48.780;9.146;2024-03-02T05:56:20;4.60;99.90
7512;DHT22;9999;48.780;9.146;2024-03-02T05:58:47;4.60;99.90
7512;DHT22;9999;48.780;9.146;2024-03-02T06:01:26;4.60;99.90
7512;DHT22;9999;48.780;9.146;2024-03-02T06:03:55;4.60;99.90
7512;DHT22;9999;48.780;9.146;2024-03-02T06:06:23;4.70;99.90
7512;DHT22;9999;48.780;9.146;2024-03-02T06:08:50;4.60;99.90
7512;DHT22;9999;48.780;9.146;2024-03-02T06:11:16;4.60;99.90
7512;DHT22;9999;48.780;9.146;2024-03-02T06:13:43;4.70;99.90
7512;DHT22;9999;48.780;9.146;2024-03-02T06:16:10;4.70;99.90
7512;DHT22;9999;48.780;9.146;2024-03-02T06:18:37;4.80;99.90
7512;DHT22;9999;48.780;9.146;2024-03-02T06:21:04;4.80;99.90
7512;DHT22;9999;48.780;9.146;2024-03-02T06:23:33;4.80;99.90
7512;DHT22;9999;48.780;9.146;2024-03-02T06:26:00;4.80;99.90
7512;DHT22;9999;48.780;9.146;2024-03-02T06:28:27;4.90;99.90
7512;DHT22;9999;48.780;9.146;2024-03-02T06:30:54;4.90;99.90
7512;DHT22;9999;48.780;9.146;2024-03-02T06:33:21;5.00;99.90
7512;DHT22;9999;48.780;9.146;2024-03-02T06:35:48;5.00;99.90
7512;DHT22;9999;48.780;9.146;2024-03-02T06:38:15;5.00;99.90
7512;DHT22;9999;48.780;9.146;2024-03-02T06:40:43;5.10;99.90
7512;DHT22;9999;48.780;9.146;2024-03-02T06:43:10;5.10;99.90
7512;DHT22;9999;48.780;9.146;2024-03-02T06:45:37;5.10;99.90
7512;DHT22;9999;48.780;9.146;2024-03-02T06:48:04;5.10;99.90
7512;DHT22;9999;48.780;9.146;2024-03-02T06:50:31;5.10;99.90
7512;DHT22;9999;48.780;9.146;2024-03-02T06:52:58;5.10;99.90
7512;DHT22;9999;48.780;9.146;2024-03-02T06:55:25;5.20;99.90
7512;DHT22;9999;48.780;9.146;2024-03-02T06:57:53;5.20;99.90
7512;DHT22;9999;48.780;9.146;2024-03-02T07:00:20;5.30;99.90
7512;DHT22;9999;48.780;9.146;2024-03-02T07:02:47;5.30;99.90
7512;DHT22;9999;48.780;9.146;2024-03-02T07:05:13;5.40;99.90
7512;DHT22;9999;48.780;9.146;2024-03-02T07:07:40;5.40;99.90
7512;DHT22;9999;48.780;9.146;2024-03-02T07:10:07;5.50;99.90
7512;DHT22;9999;48.780;9.146;2024-03-02T07:12:34;5.60;99.90
7512;DHT22;9999;48.780;9.146;2024-03-02T07:15:03;5.60;99.90
7512;DHT22;9999;48.780;9.146;2024-03-02T07:17:54;5.70;99.90
7512;DHT22;9999;48.780;9.146;2024-03-02T07:20:21;5.80;99.90
7512;DHT22;9999;48.780;9.146;2024-03-02T07:22:48;6.10;99.90
7512;DHT22;9999;48.780;9.146;2024-03-02T07:25:15;6.30;99.90
7512;DHT22;9999;48.780;9.146;2024-03-02T07:27:41;6.50;99.90
7512;DHT22;9999;48.780;9.146;2024-03-02T07:30:14;6.60;99.90
7512;DHT22;9999;48.780;9.146;2024-03-02T07:32:41;6.90;99.90
7512;DHT22;9999;48.780;9.146;2024-03-02T07:35:11;6.90;99.90
7512;DHT22;9999;48.780;9.146;2024-03-02T07:37:38;7.30;99.90
7512;DHT22;9999;48.780;9.146;2024-03-02T07:40:06;7.30;99.90
7512;DHT22;9999;48.780;9.146;2024-03-02T07:42:37;7.30;99.90
7512;DHT22;9999;48.780;9.146;2024-03-02T07:45:06;7.20;99.90
7512;DHT22;9999;48.780;9.146;2024-03-02T07:47:34;7.00;99.90
7512;DHT22;9999;48.780;9.146;2024-03-02T07:50:01;6.90;99.90
7512;DHT22;9999;48.780;9.146;2024-03-02T07:52:31;6.90;99.90
7512;DHT22;9999;48.780;9.146;2024-03-02T07:54:58;6.60;99.90
7512;DHT22;9999;48.780;9.146;2024-03-02T07:57:25;6.50;99.90
7512;DHT22;9999;48.780;9.146;2024-03-02T07:59:52;6.50;99.90
7512;DHT22;9999;48.780;9.146;2024-03-02T08:02:19;6.60;99.90
7512;DHT22;9999;48.780;9.146;2024-03-02T08:04:47;6.60;99.90
7512;DHT22;9999;48.780;9.146;2024-03-02T08:07:13;6.60;99.90
7512;DHT22;9999;48.780;9.146;2024-03-02T08:09:40;6.70;99.90
7512;DHT22;9999;48.780;9.146;2024-03-02T08:12:07;6.80;99.90
7512;DHT22;9999;48.780;9.146;2024-03-02T08:14:34;6.80;99.90
7512;DHT22;9999;48.780;9.146;2024-03-02T08:17:01;6.90;99.90
7512;DHT22;9999;48.780;9.146;2024-03-02T08:19:28;6.80;99.90
7512;DHT22;9999;48.780;9.146;2024-03-02T08:21:56;7.10;99.90
7512;DHT22;9999;48.780;9.146;2024-03-02T08:24:24;7.30;99.90
7512;DHT22;9999;48.780;9.146;2024-03-02T08:26:51;7.60;99.90
7512;DHT22;9999;48.780;9.146;2024-03-02T08:29:18;7.90;99.90
7512;DHT22;9999;48.780;9.146;2024-03-02T08:31:45;8.20;99.90
7512;DHT22;9999;48.780;9.146;2024-03-02T08:34:12;8.50;99.90
7512;DHT22;9999;48.780;9.146;2024-03-02T08:36:39;8.70;99.90
7512;DHT22;9999;48.780;9.146;2024-03-02T08:39:07;9.00;99.90
7512;DHT22;9999;48.780;9.146;2024-03-02T08:41:41;8.80;99.90
7512;DHT22;9999;48.780;9.146;2024-03-02T08:44:08;9.40;99.90
7512;DHT22;9999;48.780;9.146;2024-03-02T08:46:35;9.80;99.90
7512;DHT22;9999;48.780;9.146;2024-03-02T08:49:03;10.10;99.90
7512;DHT22;9999;48.780;9.146;2024-03-02T08:51:30;10.10;99.90
7512;DHT22;9999;48.780;9.146;2024-03-02T08:53:57;10.40;99.90
7512;DHT22;9999;48.780;9.146;2024-03-02T08:56:25;10.60;99.90
7512;DHT22;9999;48.780;9.146;2024-03-02T08:58:52;10.60;99.90
7512;DHT22;9999;48.780;9.146;2024-03-02T09:01:19;10.50;99.90
7512;DHT22;9999;48.780;9.146;2024-03-02T09:03:46;10.60;99.90
7512;DHT22;9999;48.780;9.146;2024-03-02T09:06:15;10.70;99.90
7512;DHT22;9999;48.780;9.146;2024-03-02T09:08:43;10.60;99.90
7512;DHT22;9999;48.780;9.146;2024-03-02T09:11:10;10.80;99.90
7512;DHT22;9999;48.780;9.146;2024-03-02T09:13:39;10.60;99.90
7512;DHT22;9999;48.780;9.146;2024-03-02T09:16:06;10.80;99.90
7512;DHT22;9999;48.780;9.146;2024-03-02T09:18:36;10.80;99.90
7512;DHT22;9999;48.780;9.146;2024-03-02T09:21:03;10.70;99.90
7512;DHT22;9999;48.780;9.146;2024-03-02T09:23:30;10.90;99.90
7512;DHT22;9999;48.780;9.146;2024-03-02T09:25:57;11.20;99.90
7512;DHT22;9999;48.780;9.146;2024-03-02T09:28:24;11.20;99.90
7512;DHT22;9999;48.780;9.146;2024-03-02T09:30:52;11.70;99.90
7512;DHT22;9999;48.780;9.146;2024-03-02T09:33:18;12.10;99.90
7512;DHT22;9999;48.780;9.146;2024-03-02T09:35:45;12.10;99.90
7512;DHT22;9999;48.780;9.146;2024-03-02T09:38:14;12.30;99.90
7512;DHT22;9999;48.780;9.146;2024-03-02T09:40:41;12.70;99.90
7512;DHT22;9999;48.780;9.146;2024-03-02T09:43:09;12.90;99.90
7512;DHT22;9999;48.780;9.146;2024-03-02T09:45:36;13.00;99.90
7512;DHT22;9999;48.780;9.146;2024-03-02T09:48:05;13.30;99.90
7512;DHT22;9999;48.780;9.146;2024-03-02T09:50:32;12.90;99.90
7512;DHT22;9999;48.780;9.146;2024-03-02T09:52:59;12.50;99.90
7512;DHT22;9999;48.780;9.146;2024-03-02T09:55:25;13.10;99.90
7512;DHT22;9999;48.780;9.146;2024-03-02T09:57:53;13.60;99.90
7512;DHT22;9999;48.780;9.146;2024-03-02T10:00:20;13.50;99.90
7512;DHT22;9999;48.780;9.146;2024-03-02T10:02:47;13.70;99.90
7512;DHT22;9999;48.780;9.146;2024-03-02T10:05:24;13.40;99.90
7512;DHT22;9999;48.780;9.146;2024-03-02T10:07:59;13.50;99.90
7512;DHT22;9999;48.780;9.146;2024-03-02T10:10:34;13.90;99.90
7512;DHT22;9999;48.780;9.146;2024-03-02T10:13:05;14.20;99.90
7512;DHT22;9999;48.780;9.146;2024-03-02T10:15:33;13.80;99.90
7512;DHT22;9999;48.780;9.146;2024-03-02T10:18:00;14.10;99.90
7512;DHT22;9999;48.780;9.146;2024-03-02T10:20:28;14.20;99.90
7512;DHT22;9999;48.780;9.146;2024-03-02T10:22:55;14.30;99.90
7512;DHT22;9999;48.780;9.146;2024-03-02T10:25:29;14.50;99.90
7512;DHT22;9999;48.780;9.146;2024-03-02T10:27:57;14.70;99.90
7512;DHT22;9999;48.780;9.146;2024-03-02T10:30:25;14.80;99.90
7512;DHT22;9999;48.780;9.146;2024-03-02T10:32:53;14.80;99.90
7512;DHT22;9999;48.780;9.146;2024-03-02T10:35:20;14.90;99.90
7512;DHT22;9999;48.780;9.146;2024-03-02T10:37:49;14.50;99.90
7512;DHT22;9999;48.780;9.146;2024-03-02T10:40:16;14.50;99.90
7512;DHT22;9999;48.780;9.146;2024-03-02T10:42:45;14.90;99.90
7512;DHT22;9999;48.780;9.146;2024-03-02T10:45:12;15.00;99.90
7512;DHT22;9999;48.780;9.146;2024-03-02T10:47:41;14.90;99.90
7512;DHT22;9999;48.780;9.146;2024-03-02T10:50:09;14.80;99.90
7512;DHT22;9999;48.780;9.146;2024-03-02T10:52:36;14.80;99.90
7512;DHT22;9999;48.780;9.146;2024-03-02T10:55:05;14.90;99.90
7512;DHT22;9999;48.780;9.146;2024-03-02T10:57:39;15.00;99.90
7512;DHT22;9999;48.780;9.146;2024-03-02T11:00:10;15.20;99.90
7512;DHT22;9999;48.780;9.146;2024-03-02T11:02:42;15.30;99.90
7512;DHT22;9999;48.780;9.146;2024-03-02T11:05:13;15.40;99.90
7512;DHT22;9999;48.780;9.146;2024-03-02T11:07:45;15.50;99.90
7512;DHT22;9999;48.780;9.146;2024-03-02T11:10:13;15.70;99.90
7512;DHT22;9999;48.780;9.146;2024-03-02T11:12:47;15.80;99.90
7512;DHT22;9999;48.780;9.146;2024-03-02T11:15:19;15.50;99.90
7512;DHT22;9999;48.780;9.146;2024-03-02T11:17:48;15.70;99.90
7512;DHT22;9999;48.780;9.146;2024-03-02T11:20:15;15.70;99.90
7512;DHT22;9999;48.780;9.146;2024-03-02T11:22:44;16.00;99.90
7512;DHT22;9999;48.780;9.146;2024-03-02T11:25:24;15.90;99.90
7512;DHT22;9999;48.780;9.146;2024-03-02T11:28:00;15.80;99.90
7512;DHT22;9999;48.780;9.146;2024-03-02T11:30:51;15.70;99.90
7512;DHT22;9999;48.780;9.146;2024-03-02T11:33:24;15.90;97.70
7512;DHT22;9999;48.780;9.146;2024-03-02T11:35:56;15.90;98.50
7512;DHT22;9999;48.780;9.146;2024-03-02T11:38:30;15.90;97.20
7512;DHT22;9999;48.780;9.146;2024-03-02T11:41:00;15.70;97.90
7512;DHT22;9999;48.780;9.146;2024-03-02T11:43:28;16.00;97.70
7512;DHT22;9999;48.780;9.146;2024-03-02T11:45:59;15.90;96.60
7512;DHT22;9999;48.780;9.146;2024-03-02T11:48:26;15.60;93.40
7512;DHT22;9999;48.780;9.146;2024-03-02T11:50:53;15.60;98.90
7512;DHT22;9999;48.780;9.146;2024-03-02T11:53:21;15.70;94.90
7512;DHT22;9999;48.780;9.146;2024-03-02T11:55:47;15.70;94.10
7512;DHT22;9999;48.780;9.146;2024-03-02T11:58:16;15.70;96.10
7512;DHT22;9999;48.780;9.146;2024-03-02T12:00:46;15.50;95.80
7512;DHT22;9999;48.780;9.146;2024-03-02T12:03:13;15.50;96.70
7512;DHT22;9999;48.780;9.146;2024-03-02T12:05:40;15.10;96.40
7512;DHT22;9999;48.780;9.146;2024-03-02T12:08:08;15.10;97.50
7512;DHT22;9999;48.780;9.146;2024-03-02T12:10:35;15.10;97.70
7512;DHT22;9999;48.780;9.146;2024-03-02T12:13:04;15.30;95.80
7512;DHT22;9999;48.780;9.146;2024-03-02T12:15:34;15.50;95.80
7512;DHT22;9999;48.780;9.146;2024-03-02T12:18:02;15.50;94.50
7512;DHT22;9999;48.780;9.146;2024-03-02T12:20:30;15.60;95.90
7512;DHT22;9999;48.780;9.146;2024-03-02T12:22:58;15.80;94.40
7512;DHT22;9999;48.780;9.146;2024-03-02T12:25:26;15.80;92.20
7512;DHT22;9999;48.780;9.146;2024-03-02T12:27:55;15.90;96.20
7512;DHT22;9999;48.780;9.146;2024-03-02T12:30:22;16.00;95.50
7512;DHT22;9999;48.780;9.146;2024-03-02T12:32:51;16.00;94.60
7512;DHT22;9999;48.780;9.146;2024-03-02T12:35:18;15.90;95.10
7512;DHT22;9999;48.780;9.146;2024-03-02T12:37:45;16.00;93.20
7512;DHT22;9999;48.780;9.146;2024-03-02T12:40:13;16.20;92.70
7512;DHT22;9999;48.780;9.146;2024-03-02T12:42:41;16.10;91.10
7512;DHT22;9999;48.780;9.146;2024-03-02T12:45:08;16.10;92.90
7512;DHT22;9999;48.780;9.146;2024-03-02T12:47:35;16.30;93.10
7512;DHT22;9999;48.780;9.146;2024-03-02T12:50:05;16.40;91.30
7512;DHT22;9999;48.780;9.146;2024-03-02T12:52:32;16.50;92.90
7512;DHT22;9999;48.780;9.146;2024-03-02T12:55:00;16.40;92.50
7512;DHT22;9999;48.780;9.146;2024-03-02T12:57:29;16.40;91.30
7512;DHT22;9999;48.780;9.146;2024-03-02T12:59:59;16.50;92.10
7512;DHT22;9999;48.780;9.146;2024-03-02T13:02:28;16.20;92.40
7512;DHT22;9999;48.780;9.146;2024-03-02T13:04:55;16.40;93.10
7512;DHT22;9999;48.780;9.146;2024-03-02T13:07:24;16.30;94.50
7512;DHT22;9999;48.780;9.146;2024-03-02T13:09:51;16.20;95.30
7512;DHT22;9999;48.780;9.146;2024-03-02T13:12:19;16.50;93.90
7512;DHT22;9999;48.780;9.146;2024-03-02T13:14:48;16.50;92.30
7512;DHT22;9999;48.780;9.146;2024-03-02T13:17:16;16.40;93.50
7512;DHT22;9999;48.780;9.146;2024-03-02T13:19:51;16.30;93.00
7512;DHT22;9999;48.780;9.146;2024-03-02T13:22:18;16.50;91.90
7512;DHT22;9999;48.780;9.146;2024-03-02T13:24:46;16.60;92.60
7512;DHT22;9999;48.780;9.146;2024-03-02T13:27:13;16.70;90.10
7512;DHT22;9999;48.780;9.146;2024-03-02T13:29:40;16.60;90.40
7512;DHT22;9999;48.780;9.146;2024-03-02T13:32:07;16.60;91.20
7512;DHT22;9999;48.780;9.146;2024-03-02T13:34:35;16.70;91.90
7512;DHT22;9999;48.780;9.146;2024-03-02T13:37:02;16.90;91.00
7512;DHT22;9999;48.780;9.146;2024-03-02T13:39:31;16.70;91.30
7512;DHT22;9999;48.780;9.146;2024-03-02T13:41:59;16.90;90.90
7512;DHT22;9999;48.780;9.146;2024-03-02T13:44:30;16.90;88.80
7512;DHT22;9999;48.780;9.146;2024-03-02T13:46:58;16.70;91.30
7512;DHT22;9999;48.780;9.146;2024-03-02T13:49:24;16.60;91.70
7512;DHT22;9999;48.780;9.146;2024-03-02T13:51:54;16.80;88.40
7512;DHT22;9999;48.780;9.146;2024-03-02T13:54:22;16.70;89.80
7512;DHT22;9999;48.780;9.146;2024-03-02T13:56:49;16.70;90.40
7512;DHT22;9999;48.780;9.146;2024-03-02T13:59:17;16.80;91.50
7512;DHT22;9999;48.780;9.146;2024-03-02T14:01:44;16.90;90.70
7512;DHT22;9999;48.780;9.146;2024-03-02T14:04:11;16.70;90.60
7512;DHT22;9999;48.780;9.146;2024-03-02T14:06:38;16.70;87.40
7512;DHT22;9999;48.780;9.146;2024-03-02T14:09:05;16.50;90.60
7512;DHT22;9999;48.780;9.146;2024-03-02T14:11:31;16.40;92.00
7512;DHT22;9999;48.780;9.146;2024-03-02T14:13:58;16.70;92.00
7512;DHT22;9999;48.780;9.146;2024-03-02T14:16:26;16.70;90.50
7512;DHT22;9999;48.780;9.146;2024-03-02T14:18:53;16.70;90.20
7512;DHT22;9999;48.780;9.146;2024-03-02T14:21:20;16.70;89.30
7512;DHT22;9999;48.780;9.146;2024-03-02T14:23:47;16.70;87.90
7512;DHT22;9999;48.780;9.146;2024-03-02T14:26:13;16.50;90.60
7512;DHT22;9999;48.780;9.146;2024-03-02T14:28:41;16.50;88.40
7512;DHT22;9999;48.780;9.146;2024-03-02T14:31:07;16.50;90.80
7512;DHT22;9999;48.780;9.146;2024-03-02T14:33:35;16.30;89.80
7512;DHT22;9999;48.780;9.146;2024-03-02T14:36:03;16.20;87.40
7512;DHT22;9999;48.780;9.146;2024-03-02T14:38:30;16.20;89.90
7512;DHT22;9999;48.780;9.146;2024-03-02T14:40:57;16.30;85.50
7512;DHT22;9999;48.780;9.146;2024-03-02T14:43:24;16.20;86.20
7512;DHT22;9999;48.780;9.146;2024-03-02T14:45:51;16.20;90.10
7512;DHT22;9999;48.780;9.146;2024-03-02T14:48:17;16.20;90.20
7512;DHT22;9999;48.780;9.146;2024-03-02T14:50:46;16.30;89.30
7512;DHT22;9999;48.780;9.146;2024-03-02T14:53:12;16.40;88.70
7512;DHT22;9999;48.780;9.146;2024-03-02T14:55:39;16.40;87.80
7512;DHT22;9999;48.780;9.146;2024-03-02T14:58:06;16.30;88.00
7512;DHT22;9999;48.780;9.146;2024-03-02T15:00:33;16.30;83.50
7512;DHT22;9999;48.780;9.146;2024-03-02T15:03:00;16.30;85.40
7512;DHT22;9999;48.780;9.146;2024-03-02T15:05:27;16.20;84.70
7512;DHT22;9999;48.780;9.146;2024-03-02T15:07:55;16.20;86.00
7512;DHT22;9999;48.780;9.146;2024-03-02T15:10:24;16.10;81.60
7512;DHT22;9999;48.780;9.146;2024-03-02T15:12:51;15.90;85.90
7512;DHT22;9999;48.780;9.146;2024-03-02T15:15:18;15.90;86.60
7512;DHT22;9999;48.780;9.146;2024-03-02T15:17:44;15.90;81.30
7512;DHT22;9999;48.780;9.146;2024-03-02T15:20:11;15.90;86.20
7512;DHT22;9999;48.780;9.146;2024-03-02T15:22:38;15.80;84.70
7512;DHT22;9999;48.780;9.146;2024-03-02T15:25:07;15.70;83.60
7512;DHT22;9999;48.780;9.146;2024-03-02T15:27:34;15.50;86.50
7512;DHT22;9999;48.780;9.146;2024-03-02T15:30:00;15.40;84.90
7512;DHT22;9999;48.780;9.146;2024-03-02T15:32:28;15.30;83.60
7512;DHT22;9999;48.780;9.146;2024-03-02T15:34:55;15.20;84.60
7512;DHT22;9999;48.780;9.146;2024-03-02T15:37:22;15.10;86.70
7512;DHT22;9999;48.780;9.146;2024-03-02T15:39:48;14.90;86.50
7512;DHT22;9999;48.780;9.146;2024-03-02T15:42:16;14.70;87.60
7512;DHT22;9999;48.780;9.146;2024-03-02T15:44:43;14.70;85.20
7512;DHT22;9999;48.780;9.146;2024-03-02T15:47:10;14.50;86.10
7512;DHT22;9999;48.780;9.146;2024-03-02T15:49:37;14.40;87.80
7512;DHT22;9999;48.780;9.146;2024-03-02T15:52:03;14.40;85.50
7512;DHT22;9999;48.780;9.146;2024-03-02T15:54:30;14.30;86.30
7512;DHT22;9999;48.780;9.146;2024-03-02T15:56:57;14.20;86.50
7512;DHT22;9999;48.780;9.146;2024-03-02T15:59:25;14.10;88.60
7512;DHT22;9999;48.780;9.146;2024-03-02T16:01:52;14.00;88.70
7512;DHT22;9999;48.780;9.146;2024-03-02T16:04:19;14.00;87.90
7512;DHT22;9999;48.780;9.146;2024-03-02T16:06:46;13.80;89.00
7512;DHT22;9999;48.780;9.146;2024-03-02T16:09:12;13.80;90.10
7512;DHT22;9999;48.780;9.146;2024-03-02T16:11:39;13.80;90.00
7512;DHT22;9999;48.780;9.146;2024-03-02T16:14:06;13.70;90.50